Time;durP1;ratioP1;P1;durP2;ratioP2;P2;SDS_P1;SDS_P2;PMS_P1;PMS_P2;Temp;Humidity;BMP_temperature;BMP_pressure;BME280_temperature;BME280_humidity;BME280_pressure;Samples;Min_cycle;Max_cycle;Signal;HPM_P1;HPM_P2
2021/01/16 06:33:56;;;;;;;21.63;12.83;;;-0.50;91.00;;;;;;1159863;22;20490;-84
2021/01/16 06:36:27;;;;;;;18.10;12.53;;;-0.70;90.90;;;;;;5031379;28;20224;-84
2021/01/16 06:38:57;;;;;;;17.73;11.77;;;-0.70;91.00;;;;;;5029242;28;20265;-86
2021/01/16 06:41:28;;;;;;;19.93;12.73;;;-0.80;91.20;;;;;;5034176;28;20536;-85
2021/01/16 06:43:55;;;;;;;17.60;12.27;;;-0.80;90.90;;;;;;5038232;28;20580;-85
2021/01/16 06:46:42;;;;;;;19.27;12.43;;;-0.80;91.20;;;;;;5034856;28;20751;-87
2021/01/16 06:49:18;;;;;;;16.83;11.37;;;-0.70;92.20;;;;;;5031071;28;20249;-84
2021/01/16 06:51:45;;;;;;;16.47;11.67;;;-0.70;91.20;;;;;;5037432;28;20204;-84
2021/01/16 06:54:11;;;;;;;19.90;12.33;;;-0.70;91.00;;;;;;5032621;28;20225;-84
2021/01/16 06:56:40;;;;;;;18.30;12.33;;;-0.80;90.90;;;;;;5034809;28;20275;-84
2021/01/16 06:59:13;;;;;;;19.40;12.47;;;-1.00;91.20;;;;;;5040090;28;20222;-85
2021/01/16 07:01:41;;;;;;;21.37;13.30;;;-0.80;92.40;;;;;;5034432;28;20297;-89
2021/01/16 07:04:13;;;;;;;21.97;12.93;;;-1.00;91.40;;;;;;5026687;28;20234;-84
2021/01/16 07:06:45;;;;;;;22.30;12.57;;;-1.00;91.30;;;;;;5037486;28;20209;-85
2021/01/16 07:09:12;;;;;;;20.77;12.50;;;-0.90;92.30;;;;;;5028918;28;20231;-88
2021/01/16 07:11:43;;;;;;;17.60;12.20;;;-0.80;91.40;;;;;;5035862;28;20506;-83
2021/01/16 07:14:11;;;;;;;19.93;12.93;;;-0.70;91.20;;;;;;5033819;28;20227;-85
2021/01/16 07:16:43;;;;;;;20.57;13.30;;;-0.70;90.50;;;;;;5035237;28;20198;-84
2021/01/16 07:19:09;;;;;;;20.70;13.57;;;-0.80;90.70;;;;;;5027658;28;20226;-84
2021/01/16 07:21:49;;;;;;;22.30;13.60;;;-1.00;90.90;;;;;;5029863;28;20224;-83
2021/01/16 07:24:17;;;;;;;18.83;12.50;;;-1.00;91.40;;;;;;5035206;28;20701;-84
2021/01/16 07:26:53;;;;;;;20.37;13.70;;;-0.80;91.50;;;;;;5038503;28;20316;-86
2021/01/16 07:29:20;;;;;;;21.90;14.10;;;-0.70;91.20;;;;;;5044329;28;20230;-87
2021/01/16 07:32:14;;;;;;;18.87;13.23;;;-0.80;91.00;;;;;;5039127;28;20291;-84
2021/01/16 07:34:45;;;;;;;25.37;14.47;;;-0.90;91.10;;;;;;5029321;28;20336;-85
2021/01/16 07:37:14;;;;;;;20.50;13.83;;;-0.90;91.10;;;;;;5021606;28;20255;-85
2021/01/16 07:39:43;;;;;;;20.13;13.43;;;-0.80;91.80;;;;;;5024639;28;20226;-84
2021/01/16 07:42:13;;;;;;;22.83;14.57;;;-0.90;90.90;;;;;;5032548;28;20565;-84
2021/01/16 07:44:44;;;;;;;22.67;14.33;;;-0.90;92.10;;;;;;5025863;28;20234;-84
2021/01/16 07:47:19;;;;;;;22.00;14.70;;;-0.90;91.20;;;;;;5038960;28;20369;-84
2021/01/16 07:49:53;;;;;;;23.23;14.27;;;-0.90;91.10;;;;;;5026381;28;20227;-84
2021/01/16 07:52:25;;;;;;;23.23;14.17;;;-0.90;90.90;;;;;;5030421;28;20262;-84
2021/01/16 07:55:05;;;;;;;22.77;13.70;;;-0.70;91.40;;;;;;5027091;28;20748;-84
2021/01/16 07:57:33;;;;;;;22.60;14.57;;;-0.40;91.10;;;;;;5035092;28;20205;-83
2021/01/16 08:00:05;;;;;;;20.60;13.47;;;-0.30;90.60;;;;;;5033834;28;20240;-84
2021/01/16 08:02:35;;;;;;;21.07;13.67;;;-0.30;90.40;;;;;;5028144;28;20262;-87
2021/01/16 08:08:34;;;;;;;23.73;14.10;;;-0.30;90.70;;;;;;5038130;28;20249;-83
2021/01/16 08:11:03;;;;;;;21.50;14.17;;;-0.30;89.70;;;;;;5027302;28;20275;-82
2021/01/16 08:13:30;;;;;;;20.40;13.57;;;-0.30;90.30;;;;;;5024836;28;20243;-84
2021/01/16 08:16:03;;;;;;;21.20;12.70;;;-0.20;88.60;;;;;;5027878;28;20215;-87
2021/01/16 08:18:33;;;;;;;20.40;13.33;;;-0.10;87.40;;;;;;5020935;28;20234;-85
2021/01/16 08:21:07;;;;;;;16.87;11.93;;;-0.10;88.30;;;;;;5022006;28;20211;-82
2021/01/16 08:27:16;;;;;;;16.77;11.47;;;0.00;85.80;;;;;;5036124;28;20880;-82
2021/01/16 08:29:45;;;;;;;20.20;12.73;;;-0.10;86.10;;;;;;5041146;28;20673;-88
2021/01/16 08:32:12;;;;;;;18.97;12.17;;;0.20;87.40;;;;;;5020146;28;20203;-82
2021/01/16 08:34:50;;;;;;;20.43;12.73;;;0.20;82.60;;;;;;5026304;28;20202;-86
2021/01/16 08:37:32;;;;;;;17.87;11.83;;;0.00;83.60;;;;;;5028949;28;20273;-80
2021/01/16 08:39:59;;;;;;;18.17;12.40;;;0.10;85.60;;;;;;5023921;28;20299;-83
2021/01/16 08:42:28;;;;;;;17.37;11.83;;;0.30;86.00;;;;;;5026877;28;20194;-89
2021/01/16 08:44:56;;;;;;;18.63;12.03;;;0.50;84.50;;;;;;5034752;28;20213;-82
2021/01/16 08:47:23;;;;;;;16.07;10.87;;;0.70;86.30;;;;;;5040033;28;20187;-83
2021/01/16 08:53:21;;;;;;;18.73;12.00;;;0.40;78.60;;;;;;5019054;28;20218;-86
2021/01/16 08:55:47;;;;;;;17.63;11.33;;;0.40;83.50;;;;;;5029989;28;20656;-89
2021/01/16 08:58:28;;;;;;;18.47;11.63;;;0.40;83.60;;;;;;5026780;28;20237;-83
2021/01/16 09:00:54;;;;;;;19.53;11.57;;;0.50;80.80;;;;;;5027741;28;20771;-87
2021/01/16 09:03:21;;;;;;;17.33;11.20;;;0.50;80.00;;;;;;5038742;28;20315;-80
2021/01/16 09:05:48;;;;;;;18.80;11.97;;;0.40;82.00;;;;;;5030221;28;20607;-90
2021/01/16 09:08:19;;;;;;;17.97;12.30;;;0.40;80.60;;;;;;5036121;28;20596;-90
2021/01/16 09:10:46;;;;;;;17.83;11.73;;;0.40;81.20;;;;;;5034749;28;20205;-86
2021/01/16 09:13:27;;;;;;;16.73;11.57;;;0.70;78.70;;;;;;5019949;28;20241;-80
2021/01/16 09:19:29;;;;;;;15.40;10.30;;;0.70;77.80;;;;;;5026866;28;20229;-85
2021/01/16 09:22:20;;;;;;;16.93;11.60;;;0.60;77.70;;;;;;5008013;28;20273;-82
2021/01/16 09:24:47;;;;;;;15.10;10.60;;;0.50;77.70;;;;;;5019624;28;20607;-80
2021/01/16 09:27:27;;;;;;;14.70;10.30;;;0.60;77.70;;;;;;5020747;28;20205;-85
2021/01/16 09:29:56;;;;;;;15.73;10.70;;;0.40;77.50;;;;;;5022443;28;20228;-81
2021/01/16 09:32:31;;;;;;;15.27;10.60;;;0.50;77.70;;;;;;5019556;28;20203;-84
2021/01/16 09:34:57;;;;;;;15.83;10.90;;;0.60;77.30;;;;;;5016410;28;20252;-79
2021/01/16 09:37:25;;;;;;;14.73;10.30;;;0.90;77.50;;;;;;5022677;28;20302;-82
2021/01/16 09:40:03;;;;;;;16.13;10.60;;;0.90;76.10;;;;;;5022124;28;20415;-83
2021/01/16 09:42:30;;;;;;;16.17;10.93;;;0.80;76.90;;;;;;5025122;28;20229;-85
2021/01/16 09:44:59;;;;;;;15.90;11.07;;;0.60;77.80;;;;;;5020030;28;20327;-85
2021/01/16 09:47:45;;;;;;;15.13;10.27;;;0.70;77.80;;;;;;5034534;28;20280;-85
2021/01/16 09:50:13;;;;;;;14.77;9.87;;;0.80;77.60;;;;;;5014207;28;20228;-79
2021/01/16 09:52:53;;;;;;;14.93;9.97;;;0.80;76.10;;;;;;5012826;28;20288;-77
2021/01/16 09:55:26;;;;;;;16.70;11.17;;;0.80;76.10;;;;;;5013807;28;20231;-79
2021/01/16 09:57:52;;;;;;;16.33;10.13;;;0.80;77.10;;;;;;5018828;28;20692;-84
2021/01/16 10:00:28;;;;;;;14.93;9.97;;;0.60;77.40;;;;;;5026525;28;20313;-79
2021/01/16 10:03:02;;;;;;;24.53;11.87;;;0.60;77.50;;;;;;5024197;28;20703;-83
2021/01/16 10:05:31;;;;;;;14.73;9.73;;;0.60;77.70;;;;;;5016328;28;20568;-81
2021/01/16 10:07:57;;;;;;;15.43;10.53;;;0.40;78.70;;;;;;5014291;28;20212;-80
2021/01/16 10:10:24;;;;;;;15.53;10.27;;;0.50;78.50;;;;;;5017441;28;20208;-84
2021/01/16 10:12:58;;;;;;;14.80;10.03;;;0.70;78.80;;;;;;5019626;28;20295;-83
2021/01/16 10:15:33;;;;;;;17.33;9.83;;;0.90;76.70;;;;;;5015480;28;20217;-81
2021/01/16 10:18:03;;;;;;;15.17;9.93;;;0.80;76.30;;;;;;5020955;28;20208;-79
2021/01/16 10:20:34;;;;;;;15.60;9.63;;;0.80;77.10;;;;;;5015450;28;20286;-78
2021/01/16 10:23:06;;;;;;;12.80;9.47;;;0.90;75.40;;;;;;5018655;28;21344;-79
2021/01/16 10:25:40;;;;;;;13.20;9.23;;;1.10;75.60;;;;;;5021285;28;20208;-77
2021/01/16 10:28:07;;;;;;;12.37;8.40;;;1.20;72.80;;;;;;5022294;28;20205;-76
2021/01/16 10:30:34;;;;;;;12.00;7.93;;;1.30;71.30;;;;;;5018498;28;20210;-81
2021/01/16 10:33:01;;;;;;;13.77;9.07;;;1.00;70.10;;;;;;5018918;28;20209;-76
2021/01/16 10:35:29;;;;;;;13.07;8.53;;;0.90;73.70;;;;;;5022658;28;20238;-75
2021/01/16 10:37:58;;;;;;;13.73;9.03;;;0.90;71.90;;;;;;5016909;28;20218;-78
2021/01/16 10:40:25;;;;;;;13.83;8.40;;;1.00;74.10;;;;;;5021588;28;20210;-77
2021/01/16 10:42:53;;;;;;;12.47;8.57;;;1.20;73.20;;;;;;5024762;28;20333;-77
2021/01/16 10:45:21;;;;;;;10.33;7.73;;;1.20;70.00;;;;;;5026613;28;20224;-79
2021/01/16 10:47:50;;;;;;;12.57;8.00;;;0.90;71.80;;;;;;5020695;28;20216;-77
2021/01/16 10:50:17;;;;;;;11.10;8.20;;;1.10;72.10;;;;;;5018527;28;20225;-81
2021/01/16 10:52:44;;;;;;;10.47;7.30;;;1.00;71.10;;;;;;5022267;28;20221;-79
2021/01/16 10:55:12;;;;;;;12.17;7.80;;;1.10;70.30;;;;;;5020898;28;20237;-79
2021/01/16 10:57:46;;;;;;;10.83;8.23;;;1.10;70.60;;;;;;5022100;28;20201;-80
2021/01/16 11:00:17;;;;;;;9.53;7.03;;;1.20;71.00;;;;;;5017680;28;20538;-78
2021/01/16 11:02:45;;;;;;;10.50;8.00;;;1.20;68.90;;;;;;5022681;28;20229;-77
2021/01/16 11:05:24;;;;;;;10.37;6.93;;;1.20;69.80;;;;;;5020228;28;20644;-78
2021/01/16 11:07:51;;;;;;;11.10;7.97;;;1.20;70.90;;;;;;5023209;28;20204;-78
2021/01/16 11:10:27;;;;;;;10.50;7.30;;;1.10;71.00;;;;;;5019354;28;20229;-79
2021/01/16 11:12:53;;;;;;;11.33;7.60;;;1.30;69.20;;;;;;5019100;28;20209;-77
2021/01/16 11:15:28;;;;;;;11.10;8.17;;;1.30;68.90;;;;;;5019082;28;20198;-78
2021/01/16 11:17:56;;;;;;;10.53;7.93;;;1.30;69.40;;;;;;5018373;28;20237;-78
2021/01/16 11:20:26;;;;;;;12.80;8.03;;;1.30;69.60;;;;;;5021235;28;20194;-81
2021/01/16 11:23:29;;;;;;;12.77;9.27;;;1.30;70.10;;;;;;5017191;28;20230;-78
2021/01/16 11:25:56;;;;;;;14.30;9.57;;;1.50;71.10;;;;;;5015105;28;20631;-84
2021/01/16 11:28:24;;;;;;;13.70;10.33;;;1.30;73.30;;;;;;5024798;28;20239;-82
2021/01/16 11:30:51;;;;;;;12.93;9.73;;;1.50;71.90;;;;;;5024651;28;20213;-79
2021/01/16 11:33:25;;;;;;;13.20;9.40;;;1.40;72.60;;;;;;5025827;28;20233;-81
2021/01/16 11:36:07;;;;;;;15.73;10.60;;;1.30;72.20;;;;;;5028966;28;20763;-83
2021/01/16 11:38:40;;;;;;;15.10;10.03;;;1.30;74.70;;;;;;5020142;28;20232;-83
2021/01/16 11:41:08;;;;;;;17.20;10.77;;;1.00;75.60;;;;;;5025801;28;20207;-79
2021/01/16 11:43:34;;;;;;;14.57;9.63;;;0.90;76.80;;;;;;5025372;28;20338;-84
2021/01/16 11:46:05;;;;;;;12.57;8.73;;;1.10;75.30;;;;;;5014349;28;20202;-79
2021/01/16 11:48:33;;;;;;;11.80;8.83;;;1.20;73.30;;;;;;5021619;28;20236;-81
2021/01/16 11:51:17;;;;;;;13.10;8.80;;;1.40;72.60;;;;;;5026127;28;20253;-80
2021/01/16 11:53:48;;;;;;;13.47;9.73;;;1.30;70.20;;;;;;5024415;28;20460;-83
2021/01/16 11:56:16;;;;;;;16.17;10.77;;;1.20;73.00;;;;;;5024528;28;20205;-80
2021/01/16 11:58:45;;;;;;;15.70;10.17;;;1.20;74.50;;;;;;5027834;28;20235;-82
2021/01/16 12:01:14;;;;;;;15.20;10.10;;;1.40;74.60;;;;;;5018719;28;20206;-79
2021/01/16 12:03:40;;;;;;;14.60;10.73;;;1.20;74.90;;;;;;5030680;28;20287;-80
2021/01/16 12:06:15;;;;;;;15.90;10.63;;;1.30;75.20;;;;;;5028307;28;20209;-84
2021/01/16 12:08:44;;;;;;;17.20;11.50;;;1.20;75.20;;;;;;5019261;28;20328;-76
2021/01/16 12:11:11;;;;;;;19.67;12.77;;;1.20;75.10;;;;;;5018231;28;20204;-76
2021/01/16 12:13:40;;;;;;;16.80;11.23;;;1.10;73.30;;;;;;5021466;28;20621;-78
2021/01/16 12:16:07;;;;;;;14.97;10.83;;;1.00;74.30;;;;;;5018119;28;20203;-78
2021/01/16 12:18:37;;;;;;;14.37;9.77;;;0.90;74.80;;;;;;5020872;28;20222;-79
2021/01/16 12:21:04;;;;;;;14.90;9.53;;;0.80;74.60;;;;;;5015559;28;20192;-79
2021/01/16 12:23:40;;;;;;;15.27;9.27;;;0.70;72.20;;;;;;5019955;28;20679;-76
2021/01/16 12:26:12;;;;;;;14.47;9.00;;;0.70;72.50;;;;;;5019699;28;20206;-83
2021/01/16 12:28:44;;;;;;;14.23;9.80;;;0.90;72.10;;;;;;5017721;28;20666;-80
2021/01/16 12:31:19;;;;;;;13.67;9.13;;;1.10;71.20;;;;;;5021507;28;20208;-79
2021/01/16 12:33:45;;;;;;;14.40;9.23;;;1.50;69.50;;;;;;5018180;28;20252;-84
2021/01/16 12:36:13;;;;;;;16.33;9.03;;;1.90;66.50;;;;;;5022893;28;20321;-78
2021/01/16 12:38:40;;;;;;;12.40;9.07;;;2.20;65.10;;;;;;5020395;28;20241;-81
2021/01/16 12:41:06;;;;;;;13.97;9.67;;;2.30;62.30;;;;;;5016195;28;20213;-81
2021/01/16 12:43:33;;;;;;;12.87;9.30;;;2.30;64.70;;;;;;5019353;28;20231;-85
2021/01/16 12:46:06;;;;;;;12.27;8.60;;;2.10;66.20;;;;;;5016038;28;20209;-84
2021/01/16 12:48:33;;;;;;;14.30;9.20;;;1.50;66.00;;;;;;5025066;28;20239;-82
2021/01/16 12:51:05;;;;;;;13.63;8.90;;;1.40;66.00;;;;;;5013676;28;20207;-80
2021/01/16 12:53:36;;;;;;;13.03;9.00;;;1.40;67.00;;;;;;5017350;28;20240;-81
2021/01/16 12:56:13;;;;;;;13.00;8.17;;;1.40;66.00;;;;;;5022065;28;20565;-80
2021/01/16 12:58:39;;;;;;;12.57;8.50;;;1.10;65.60;;;;;;5025415;28;20256;-85
2021/01/16 13:01:06;;;;;;;15.47;8.60;;;1.00;65.50;;;;;;5024771;28;20217;-81
2021/01/16 13:03:33;;;;;;;12.33;8.10;;;1.00;67.10;;;;;;5022409;28;20235;-87
2021/01/16 13:06:02;;;;;;;13.57;8.77;;;1.00;66.00;;;;;;5024942;28;20205;-84
2021/01/16 13:08:29;;;;;;;16.03;8.50;;;1.20;67.00;;;;;;5018043;28;20234;-86
2021/01/16 13:10:56;;;;;;;14.67;9.50;;;1.30;65.90;;;;;;5022218;28;20517;-83
2021/01/16 13:13:24;;;;;;;21.93;9.50;;;1.50;66.00;;;;;;5017156;28;20233;-78
2021/01/16 13:15:51;;;;;;;13.27;9.40;;;1.40;65.90;;;;;;5016506;28;20220;-83
2021/01/16 13:18:19;;;;;;;13.67;8.87;;;1.70;66.30;;;;;;5022686;28;20242;-83
2021/01/16 13:20:47;;;;;;;11.33;8.20;;;1.90;66.60;;;;;;5020255;28;20277;-83
2021/01/16 13:23:16;;;;;;;12.27;8.03;;;1.90;59.80;;;;;;5026836;28;20310;-84
2021/01/16 13:25:44;;;;;;;13.30;8.40;;;1.80;59.80;;;;;;5027210;28;20309;-82
2021/01/16 13:28:15;;;;;;;10.97;7.43;;;1.80;60.40;;;;;;5015034;28;20218;-86
2021/01/16 13:30:43;;;;;;;11.43;7.60;;;1.60;60.10;;;;;;5023666;28;20198;-82
2021/01/16 13:33:10;;;;;;;11.77;8.13;;;1.70;59.90;;;;;;5019175;28;20305;-80
2021/01/16 13:35:36;;;;;;;12.23;7.90;;;1.90;59.70;;;;;;5022122;28;20232;-85
2021/01/16 13:38:03;;;;;;;12.00;7.60;;;1.60;59.10;;;;;;5016242;28;20702;-80
2021/01/16 13:40:34;;;;;;;14.83;8.37;;;1.40;61.40;;;;;;5023348;28;20646;-80
2021/01/16 13:43:05;;;;;;;15.97;9.40;;;1.30;61.00;;;;;;5015306;28;20316;-83
2021/01/16 13:45:33;;;;;;;17.53;9.53;;;1.20;61.70;;;;;;5018975;28;20201;-76
2021/01/16 13:48:01;;;;;;;12.10;8.70;;;1.10;62.90;;;;;;5018608;28;20198;-80
2021/01/16 13:50:33;;;;;;;14.47;9.00;;;1.10;63.50;;;;;;5025507;28;20202;-78
2021/01/16 13:53:00;;;;;;;13.47;9.07;;;1.00;63.00;;;;;;5029837;28;20197;-78
2021/01/16 13:55:28;;;;;;;16.50;9.37;;;0.80;65.30;;;;;;5027908;28;20204;-78
2021/01/16 13:58:03;;;;;;;16.83;9.90;;;0.80;65.30;;;;;;5024776;28;20611;-80
2021/01/16 14:00:29;;;;;;;17.23;10.17;;;0.90;65.40;;;;;;5023685;28;20236;-83
2021/01/16 14:02:56;;;;;;;17.63;10.07;;;0.80;65.30;;;;;;5019841;28;20209;-81
2021/01/16 14:05:25;;;;;;;17.87;10.37;;;0.90;65.50;;;;;;5021506;28;20201;-82
2021/01/16 14:07:53;;;;;;;14.93;9.10;;;0.90;65.40;;;;;;5023426;28;20319;-80
2021/01/16 14:10:30;;;;;;;16.57;9.83;;;0.90;65.50;;;;;;5026096;28;20233;-81
2021/01/16 14:13:07;;;;;;;15.27;10.23;;;0.80;65.30;;;;;;5023172;28;20205;-80
2021/01/16 14:15:35;;;;;;;17.90;9.83;;;0.50;65.00;;;;;;5027430;28;20194;-82
2021/01/16 14:18:03;;;;;;;16.33;10.17;;;0.50;65.00;;;;;;5023155;28;20198;-83
2021/01/16 14:20:34;;;;;;;17.23;10.40;;;0.40;67.90;;;;;;5022838;28;20599;-79
2021/01/16 14:23:03;;;;;;;17.43;10.47;;;0.50;66.60;;;;;;5021263;28;20543;-80
2021/01/16 14:25:31;;;;;;;18.80;10.73;;;0.50;67.00;;;;;;5025264;28;20209;-80
2021/01/16 14:27:59;;;;;;;20.40;10.13;;;0.60;66.20;;;;;;5031876;28;20292;-79
2021/01/16 14:30:30;;;;;;;16.93;10.83;;;0.70;66.70;;;;;;5024669;28;20244;-82
2021/01/16 14:33:01;;;;;;;15.70;10.00;;;0.80;65.30;;;;;;5020618;28;20229;-79
2021/01/16 14:35:31;;;;;;;18.77;10.57;;;0.90;65.40;;;;;;5014953;28;20248;-80
2021/01/16 14:38:00;;;;;;;18.63;10.03;;;0.80;65.30;;;;;;5024341;28;20205;-79
2021/01/16 14:40:28;;;;;;;16.43;9.83;;;0.60;65.10;;;;;;5020156;28;20650;-79
2021/01/16 14:43:03;;;;;;;19.50;10.20;;;0.50;65.00;;;;;;5018483;28;20215;-79
2021/01/16 14:45:29;;;;;;;15.53;9.73;;;0.40;64.90;;;;;;5025483;28;20293;-81
2021/01/16 14:48:07;;;;;;;21.90;10.17;;;0.50;65.00;;;;;;5019954;28;20250;-81
2021/01/16 14:50:33;;;;;;;15.43;8.97;;;0.40;64.90;;;;;;5021904;28;20520;-80
2021/01/16 14:53:01;;;;;;;17.13;9.63;;;0.40;64.90;;;;;;5025620;28;20203;-81
2021/01/16 14:55:27;;;;;;;19.50;9.70;;;0.30;64.70;;;;;;5019918;28;20232;-80
2021/01/16 14:57:53;;;;;;;18.20;9.37;;;0.20;64.70;;;;;;5023527;28;20302;-81
2021/01/16 15:00:25;;;;;;;15.17;9.30;;;0.00;65.30;;;;;;5024006;28;20312;-79
2021/01/16 15:02:57;;;;;;;14.17;9.10;;;0.00;68.70;;;;;;5021783;28;20604;-79
2021/01/16 15:05:24;;;;;;;13.53;8.53;;;0.00;67.20;;;;;;5019200;28;20227;-81
2021/01/16 15:08:07;;;;;;;12.50;8.23;;;-0.10;64.40;;;;;;5020620;28;20217;-79
2021/01/16 15:10:36;;;;;;;16.87;8.80;;;-0.10;64.40;;;;;;5024995;28;20222;-80
2021/01/16 15:13:04;;;;;;;17.83;9.23;;;-0.20;64.30;;;;;;5019759;28;20202;-80
2021/01/16 15:15:32;;;;;;;16.43;9.50;;;-0.30;66.00;;;;;;5023805;28;20203;-81
2021/01/16 15:18:00;;;;;;;14.47;8.93;;;-0.40;66.50;;;;;;5016753;28;20217;-86
2021/01/16 15:20:26;;;;;;;20.20;9.43;;;-0.40;67.60;;;;;;5020604;28;20222;-80
2021/01/16 15:22:53;;;;;;;16.43;9.93;;;-0.60;69.00;;;;;;5021141;28;20268;-84
2021/01/16 15:25:20;;;;;;;16.37;9.47;;;-0.50;69.70;;;;;;5023472;28;20286;-83
2021/01/16 15:27:47;;;;;;;14.77;9.00;;;-0.40;72.00;;;;;;5020209;28;20544;-81
2021/01/16 15:30:14;;;;;;;15.50;9.70;;;-0.40;70.10;;;;;;5018255;28;20238;-81
2021/01/16 15:32:40;;;;;;;15.53;9.33;;;-0.40;69.90;;;;;;5021552;28;20234;-81
2021/01/16 15:35:09;;;;;;;14.63;9.33;;;-0.60;70.60;;;;;;5019961;28;20292;-81
2021/01/16 15:37:35;;;;;;;16.60;9.50;;;-0.60;70.10;;;;;;5023106;28;20202;-80
2021/01/16 15:40:04;;;;;;;17.27;10.00;;;-0.70;71.50;;;;;;5021309;28;20298;-79
2021/01/16 15:42:32;;;;;;;18.67;10.27;;;-0.80;72.60;;;;;;5015511;28;20202;-84
2021/01/16 15:45:04;;;;;;;17.50;10.10;;;-0.90;74.30;;;;;;5014261;28;20234;-82
2021/01/16 15:47:41;;;;;;;20.63;10.50;;;-0.90;75.00;;;;;;5017312;28;20243;-85
2021/01/16 15:50:08;;;;;;;15.67;10.27;;;-0.80;75.20;;;;;;5019138;28;20235;-80
2021/01/16 15:52:35;;;;;;;16.70;10.27;;;-0.90;75.20;;;;;;5020472;28;20365;-83
2021/01/16 15:55:10;;;;;;;22.63;10.97;;;-1.00;75.00;;;;;;5018569;28;20596;-89
2021/01/16 15:57:44;;;;;;;17.33;11.00;;;-1.00;76.20;;;;;;5018146;28;20661;-82
2021/01/16 16:00:23;;;;;;;19.03;11.20;;;-1.00;75.30;;;;;;5018079;28;20226;-80
2021/01/16 16:03:05;;;;;;;19.70;11.50;;;-1.00;75.80;;;;;;5020311;28;20293;-80
2021/01/16 16:05:31;;;;;;;23.67;12.63;;;-1.00;76.60;;;;;;5024067;28;20210;-83
2021/01/16 16:07:58;;;;;;;18.30;11.30;;;-1.10;77.30;;;;;;5021724;28;20210;-80
2021/01/16 16:10:25;;;;;;;18.77;11.17;;;-1.20;77.70;;;;;;5020064;28;20205;-81
2021/01/16 16:12:59;;;;;;;17.00;11.13;;;-1.20;78.70;;;;;;5021746;28;20207;-82
2021/01/16 16:15:26;;;;;;;17.03;11.37;;;-1.10;77.30;;;;;;5021803;28;20231;-82
2021/01/16 16:17:53;;;;;;;19.17;11.90;;;-1.00;77.20;;;;;;5025940;28;20206;-85
2021/01/16 16:20:20;;;;;;;19.20;11.87;;;-1.00;77.70;;;;;;5022285;28;20218;-83
2021/01/16 16:22:47;;;;;;;24.17;12.00;;;-1.20;78.70;;;;;;5020078;28;20210;-87
2021/01/16 16:25:14;;;;;;;20.63;11.77;;;-1.30;79.70;;;;;;5016677;28;20285;-82
2021/01/16 16:27:40;;;;;;;19.07;12.40;;;-1.30;79.00;;;;;;5024605;28;20203;-83
2021/01/16 16:30:09;;;;;;;20.50;11.93;;;-1.30;79.40;;;;;;5012997;28;20225;-85
2021/01/16 16:32:36;;;;;;;19.23;12.07;;;-1.30;79.40;;;;;;5020025;28;20237;-81
2021/01/16 16:35:03;;;;;;;20.43;11.63;;;-1.40;80.10;;;;;;5027892;28;20671;-86
2021/01/16 16:37:30;;;;;;;20.83;12.83;;;-1.40;81.10;;;;;;5025249;28;20235;-82
2021/01/16 16:39:58;;;;;;;18.90;12.37;;;-1.50;81.30;;;;;;5024946;28;20233;-87
2021/01/16 16:42:25;;;;;;;19.00;11.60;;;-1.50;82.40;;;;;;5026640;28;20191;-83
2021/01/16 16:44:52;;;;;;;18.00;11.83;;;-1.50;81.80;;;;;;5022539;28;20327;-86
2021/01/16 16:47:19;;;;;;;19.50;12.27;;;-1.50;81.80;;;;;;5025236;28;20621;-83
2021/01/16 16:49:45;;;;;;;20.00;12.13;;;-1.40;81.40;;;;;;5019017;28;20246;-82
2021/01/16 16:52:12;;;;;;;18.57;12.57;;;-1.40;81.50;;;;;;5023426;28;20752;-82
2021/01/16 16:54:40;;;;;;;18.63;11.87;;;-1.50;81.80;;;;;;5015793;28;20239;-81
2021/01/16 16:57:06;;;;;;;19.83;11.73;;;-1.40;81.60;;;;;;5024858;28;20195;-81
2021/01/16 16:59:32;;;;;;;20.73;11.80;;;-1.30;81.10;;;;;;5020165;28;20231;-83
2021/01/16 17:02:05;;;;;;;20.73;12.37;;;-1.20;80.90;;;;;;5023374;28;20373;-82
2021/01/16 17:04:32;;;;;;;25.63;14.30;;;-1.20;81.30;;;;;;5018112;28;20234;-88
2021/01/16 17:06:58;;;;;;;22.57;13.10;;;-1.10;80.60;;;;;;5021172;28;20297;-82
2021/01/16 17:09:25;;;;;;;20.70;12.27;;;-1.20;81.40;;;;;;5016417;28;20221;-84
2021/01/16 17:11:51;;;;;;;22.17;12.43;;;-1.20;80.00;;;;;;5016155;28;20202;-80
2021/01/16 17:14:17;;;;;;;18.83;11.70;;;-1.20;80.20;;;;;;5017427;28;20232;-85
2021/01/16 17:16:44;;;;;;;19.80;12.67;;;-1.20;80.50;;;;;;5019078;28;20254;-84
2021/01/16 17:19:11;;;;;;;22.33;12.53;;;-1.10;80.20;;;;;;5019989;28;20314;-82
2021/01/16 17:21:38;;;;;;;19.27;12.17;;;-1.20;80.40;;;;;;5022243;28;20201;-83
2021/01/16 17:24:05;;;;;;;18.93;11.13;;;-1.20;80.80;;;;;;5028496;28;20254;-83
2021/01/16 17:26:38;;;;;;;17.63;10.70;;;-1.20;80.30;;;;;;5024286;28;20200;-86
2021/01/16 17:29:04;;;;;;;18.33;11.00;;;-1.20;79.90;;;;;;5027270;28;20225;-82
2021/01/16 17:31:37;;;;;;;18.50;11.57;;;-1.30;80.60;;;;;;5026681;28;20197;-83
2021/01/16 17:34:04;;;;;;;19.47;11.27;;;-1.30;80.30;;;;;;5033087;28;20233;-82
2021/01/16 17:36:31;;;;;;;18.10;11.43;;;-1.40;81.30;;;;;;5028769;28;20198;-88
2021/01/16 17:38:58;;;;;;;16.37;10.90;;;-1.30;81.40;;;;;;5024027;28;20305;-83
2021/01/16 17:41:33;;;;;;;21.03;11.87;;;-1.50;82.40;;;;;;5033601;28;20225;-87
2021/01/16 17:43:59;;;;;;;19.33;11.83;;;-1.40;81.80;;;;;;5023298;28;20226;-86
2021/01/16 17:46:34;;;;;;;19.40;11.83;;;-1.50;81.30;;;;;;5026704;28;20305;-88
2021/01/16 17:49:00;;;;;;;18.80;11.80;;;-1.50;81.80;;;;;;5028213;28;20590;-82
2021/01/16 17:51:26;;;;;;;19.60;11.80;;;-1.50;82.10;;;;;;5019816;28;20747;-82
2021/01/16 17:53:53;;;;;;;19.17;12.23;;;-1.50;82.10;;;;;;5023137;28;20249;-81
2021/01/16 17:56:20;;;;;;;19.57;12.33;;;-1.60;82.50;;;;;;5021114;28;20752;-85
2021/01/16 17:58:53;;;;;;;20.50;12.50;;;-1.60;83.30;;;;;;5016149;28;20242;-82
2021/01/16 18:01:20;;;;;;;22.00;12.70;;;-1.70;83.50;;;;;;5018259;28;20784;-81
2021/01/16 18:03:49;;;;;;;22.97;12.80;;;-1.70;84.70;;;;;;5019631;28;20272;-80
2021/01/16 18:06:19;;;;;;;22.73;13.33;;;-1.70;84.70;;;;;;5020245;28;20208;-80
2021/01/16 18:08:47;;;;;;;25.67;13.43;;;-1.70;84.70;;;;;;5023109;28;20225;-84
2021/01/16 18:11:13;;;;;;;24.67;14.03;;;-1.60;84.70;;;;;;5025247;28;20198;-84
2021/01/16 18:13:47;;;;;;;25.07;13.87;;;-1.90;84.60;;;;;;5015265;28;20661;-84
2021/01/16 18:16:13;;;;;;;26.90;13.87;;;-1.90;84.70;;;;;;5033313;28;20202;-80
2021/01/16 18:18:39;;;;;;;23.87;13.57;;;-1.90;84.70;;;;;;5034835;28;20684;-80
2021/01/16 18:21:07;;;;;;;21.90;13.57;;;-2.00;84.50;;;;;;5036636;28;20190;-80
2021/01/16 18:23:35;;;;;;;23.97;13.40;;;-1.90;85.30;;;;;;5031422;28;20295;-80
2021/01/16 18:29:25;;;;;;;26.13;14.03;;;-1.90;84.70;;;;;;5017914;28;20257;-80
2021/01/16 18:35:20;;;;;;;24.60;14.10;;;-1.90;86.60;;;;;;5023771;28;20242;-81
2021/01/16 18:37:58;;;;;;;24.57;14.43;;;-1.90;86.20;;;;;;5026831;28;20706;-81
2021/01/16 18:40:24;;;;;;;25.17;14.63;;;-2.00;87.10;;;;;;5025833;28;20317;-85
2021/01/16 18:42:50;;;;;;;23.77;14.50;;;-1.90;88.20;;;;;;5021948;28;20671;-83
2021/01/16 18:45:18;;;;;;;24.03;14.63;;;-1.80;86.80;;;;;;5025346;28;20631;-81
2021/01/16 18:47:44;;;;;;;24.83;14.83;;;-1.90;86.40;;;;;;5030825;28;20260;-82
2021/01/16 18:50:11;;;;;;;23.27;14.03;;;-1.90;87.10;;;;;;5031281;28;20238;-86
2021/01/16 18:52:38;;;;;;;22.87;14.97;;;-1.80;86.10;;;;;;5028713;28;20201;-83
2021/01/16 18:55:05;;;;;;;25.70;14.63;;;-1.90;86.60;;;;;;5007059;28;20221;-82
2021/01/16 18:57:35;;;;;;;23.77;15.20;;;-1.80;86.50;;;;;;4999785;28;20222;-86
2021/01/16 19:00:02;;;;;;;23.53;13.97;;;-1.90;86.20;;;;;;5025100;28;20731;-84
2021/01/16 19:02:29;;;;;;;22.37;14.03;;;-1.90;86.80;;;;;;5024480;28;20261;-84
2021/01/16 19:04:55;;;;;;;22.03;14.30;;;-1.90;86.30;;;;;;5021066;28;20288;-85
2021/01/16 19:07:23;;;;;;;24.90;13.50;;;-1.80;86.20;;;;;;5027107;28;20225;-89
2021/01/16 19:09:50;;;;;;;22.13;13.70;;;-1.90;84.70;;;;;;5020860;28;20694;-84
2021/01/16 19:12:16;;;;;;;23.50;13.40;;;-2.00;86.10;;;;;;5021633;28;20224;-86
2021/01/16 19:14:44;;;;;;;24.63;14.37;;;-2.10;86.30;;;;;;5021541;28;20225;-82
2021/01/16 19:17:12;;;;;;;22.10;14.17;;;-2.20;86.60;;;;;;5024061;28;20515;-85
2021/01/16 19:19:40;;;;;;;22.97;14.63;;;-2.30;87.00;;;;;;5024478;28;20272;-85
2021/01/16 19:22:06;;;;;;;23.33;13.67;;;-2.30;88.20;;;;;;5024838;28;20287;-81
2021/01/16 19:24:34;;;;;;;21.20;13.63;;;-2.40;87.40;;;;;;5028149;28;20237;-85
2021/01/16 19:27:02;;;;;;;22.03;13.60;;;-2.40;88.00;;;;;;5024433;28;20198;-81
2021/01/16 19:29:30;;;;;;;23.43;14.73;;;-2.40;88.20;;;;;;5030906;28;20312;-81
2021/01/16 19:31:58;;;;;;;21.60;13.20;;;-2.40;87.40;;;;;;5031870;28;20196;-81
2021/01/16 20:01:17;;;;;;;34.17;20.90;;;-2.70;90.20;;;;;;6003330;22;20261;-83
2021/01/16 20:11:19;;;;;;;30.73;17.73;;;-2.70;88.70;;;;;;5040739;28;20193;-83
2021/01/16 20:13:46;;;;;;;27.33;16.70;;;-2.80;89.90;;;;;;5036702;28;20237;-84
2021/01/16 20:16:14;;;;;;;24.47;14.63;;;-2.80;89.30;;;;;;5033729;28;20295;-85